Time;durP1;ratioP1;P1;durP2;ratioP2;P2;SDS_P1;SDS_P2;PMS_P1;PMS_P2;Temp;Humidity;BMP_temperature;BMP_pressure;BME280_temperature;BME280_humidity;BME280_pressure;Samples;Min_cycle;Max_cycle;Signal;HPM_P1;HPM_P2
2022/05/25 00:00:37;;;;;;;14.50;13.00;;;11.00;99.90;;;;;;5047762;28;20041;-87
2022/05/25 00:03:04;;;;;;;15.18;13.38;;;11.00;99.90;;;;;;5031551;28;20045;-88
2022/05/25 00:05:33;;;;;;;14.43;13.00;;;10.90;99.90;;;;;;5044614;28;20082;-88
2022/05/25 00:07:59;;;;;;;14.65;13.20;;;10.90;99.90;;;;;;5055419;28;20041;-87
2022/05/25 00:10:25;;;;;;;14.82;13.32;;;10.90;99.90;;;;;;5030725;28;20543;-87
2022/05/25 00:12:50;;;;;;;13.82;12.43;;;10.90;99.90;;;;;;5055515;28;20044;-87
2022/05/25 00:15:16;;;;;;;14.40;12.65;;;10.90;99.90;;;;;;5052112;28;20052;-87
2022/05/25 00:17:42;;;;;;;13.38;11.98;;;10.90;99.90;;;;;;5048599;28;20043;-87
2022/05/25 00:20:09;;;;;;;13.30;11.90;;;10.90;99.90;;;;;;5041666;28;20136;-88
2022/05/25 00:22:49;;;;;;;13.00;11.60;;;10.90;99.90;;;;;;5030569;28;20413;-88
2022/05/25 00:25:33;;;;;;;12.88;11.57;;;10.90;99.90;;;;;;5014560;28;20065;-88
2022/05/25 00:27:59;;;;;;;12.82;11.35;;;10.90;99.90;;;;;;5040267;28;20037;-88
2022/05/25 00:30:26;;;;;;;11.55;10.43;;;10.90;99.90;;;;;;5030136;28;20049;-87
2022/05/25 00:32:53;;;;;;;12.05;10.25;;;10.80;99.90;;;;;;5048026;28;20128;-86
2022/05/25 00:35:21;;;;;;;11.13;9.82;;;10.80;99.90;;;;;;5045679;28;20048;-87
2022/05/25 00:37:47;;;;;;;13.32;10.40;;;10.80;99.90;;;;;;5048770;28;20041;-87
2022/05/25 00:40:23;;;;;;;12.27;10.20;;;10.80;99.90;;;;;;5048435;28;20041;-88
2022/05/25 00:42:50;;;;;;;12.65;10.18;;;10.90;99.90;;;;;;5047473;28;20398;-87
2022/05/25 00:45:16;;;;;;;12.10;9.48;;;10.80;99.90;;;;;;5013827;28;20037;-87
2022/05/25 00:47:46;;;;;;;11.48;9.68;;;10.80;99.90;;;;;;5048440;28;20037;-87
2022/05/25 00:50:15;;;;;;;10.30;9.18;;;10.90;99.90;;;;;;5025888;28;20045;-86
2022/05/25 00:52:45;;;;;;;12.23;9.55;;;10.80;99.90;;;;;;5038867;28;20037;-87
2022/05/25 00:55:28;;;;;;;10.38;9.38;;;10.80;99.90;;;;;;5030836;28;20505;-87
2022/05/25 00:57:56;;;;;;;11.85;9.70;;;10.80;99.90;;;;;;5032179;28;20049;-87
2022/05/25 01:00:25;;;;;;;11.40;9.70;;;10.80;99.90;;;;;;5033468;28;20049;-87
2022/05/25 01:02:57;;;;;;;10.52;9.30;;;10.80;99.90;;;;;;5036337;28;20033;-87
2022/05/25 01:05:33;;;;;;;10.13;7.85;;;10.70;99.90;;;;;;5035914;28;20131;-87
2022/05/25 01:08:17;;;;;;;10.07;8.93;;;10.70;99.90;;;;;;5030779;28;20033;-87
2022/05/25 01:11:18;;;;;;;10.55;8.77;;;10.70;99.90;;;;;;5028947;28;20079;-87
2022/05/25 01:14:24;;;;;;;10.65;9.15;;;10.70;99.90;;;;;;5054634;28;20398;-87
2022/05/25 01:17:00;;;;;;;9.90;8.90;;;10.70;99.90;;;;;;5033662;28;20405;-87
2022/05/25 01:20:08;;;;;;;11.15;9.10;;;10.60;99.90;;;;;;5033934;28;20436;-88
2022/05/25 01:22:54;;;;;;;10.32;9.23;;;10.60;99.90;;;;;;4934730;29;20390;-88
2022/05/25 01:25:52;;;;;;;11.27;10.07;;;10.60;99.90;;;;;;4950479;29;20059;-88
2022/05/25 01:28:57;;;;;;;10.73;9.30;;;10.60;99.90;;;;;;4932504;29;20090;-88
2022/05/25 01:31:28;;;;;;;10.85;9.68;;;10.50;99.90;;;;;;4935080;29;20514;-87
2022/05/25 01:34:00;;;;;;;11.48;9.73;;;10.50;99.90;;;;;;4950623;28;20059;-88
2022/05/25 01:36:41;;;;;;;11.40;10.05;;;10.50;99.90;;;;;;4919401;29;20127;-88
2022/05/25 01:39:12;;;;;;;12.15;10.05;;;10.50;99.90;;;;;;4917615;29;20147;-88
2022/05/25 01:42:05;;;;;;;12.05;10.30;;;10.50;99.90;;;;;;4922412;29;20046;-88
2022/05/25 01:44:43;;;;;;;11.93;10.73;;;10.50;99.90;;;;;;4949226;29;20118;-88
2022/05/25 01:47:10;;;;;;;11.25;10.10;;;10.40;99.90;;;;;;4917366;29;20107;-87
2022/05/25 01:49:45;;;;;;;12.20;10.98;;;10.40;99.90;;;;;;4931160;29;20048;-88
2022/05/25 01:52:16;;;;;;;12.23;10.93;;;10.40;99.90;;;;;;4934482;29;20051;-87
2022/05/25 01:54:50;;;;;;;12.70;11.40;;;10.40;99.90;;;;;;4934637;29;20130;-88
2022/05/25 01:57:17;;;;;;;13.48;11.20;;;10.40;99.90;;;;;;4966696;28;20383;-88
2022/05/25 01:59:44;;;;;;;13.07;10.95;;;10.40;99.90;;;;;;5032427;28;20053;-88
2022/05/25 02:04:57;;;;;;;13.40;12.00;;;10.40;99.90;;;;;;5051774;28;20048;-89
2022/05/25 02:07:28;;;;;;;14.15;12.40;;;10.40;99.90;;;;;;5031140;28;20037;-87
2022/05/25 02:10:10;;;;;;;15.05;12.25;;;10.30;99.90;;;;;;5029039;28;20084;-89
2022/05/25 02:13:10;;;;;;;14.57;13.07;;;10.30;99.90;;;;;;5039160;28;20124;-88
2022/05/25 02:15:36;;;;;;;14.82;12.52;;;10.30;99.90;;;;;;5013698;28;20517;-87
2022/05/25 02:18:39;;;;;;;14.18;12.77;;;10.30;99.90;;;;;;5036368;28;20042;-88
2022/05/25 02:21:24;;;;;;;15.48;13.02;;;10.30;99.90;;;;;;5033899;28;20045;-88
2022/05/25 02:24:16;;;;;;;14.50;12.95;;;10.30;99.90;;;;;;5010765;28;20466;-89
2022/05/25 02:26:51;;;;;;;14.80;13.10;;;10.20;99.90;;;;;;5029868;28;20390;-88
2022/05/25 02:29:31;;;;;;;15.05;13.15;;;10.30;99.90;;;;;;5030843;28;20183;-88
2022/05/25 02:32:01;;;;;;;16.05;14.35;;;10.30;99.90;;;;;;5029275;28;20041;-87
2022/05/25 02:34:28;;;;;;;16.83;14.48;;;10.30;99.90;;;;;;5043706;28;20047;-87
2022/05/25 02:36:56;;;;;;;16.20;14.50;;;10.30;99.90;;;;;;5032335;28;20048;-87
2022/05/25 02:39:22;;;;;;;17.58;14.60;;;10.30;99.90;;;;;;5029515;28;20139;-88
2022/05/25 02:41:54;;;;;;;16.98;15.20;;;10.30;99.90;;;;;;5020606;28;20116;-87
2022/05/25 02:44:20;;;;;;;17.45;15.50;;;10.30;99.90;;;;;;5029957;28;20073;-87
2022/05/25 02:46:46;;;;;;;17.65;15.05;;;10.30;99.90;;;;;;5028539;28;20069;-88
2022/05/25 02:49:12;;;;;;;17.55;15.75;;;10.20;99.90;;;;;;5029930;28;20482;-88
2022/05/25 02:51:38;;;;;;;16.95;15.15;;;10.20;99.90;;;;;;5042005;28;20048;-88
2022/05/25 02:54:05;;;;;;;16.50;14.80;;;10.20;99.90;;;;;;5030311;28;20521;-89
2022/05/25 02:56:30;;;;;;;17.00;15.20;;;10.20;99.90;;;;;;5045449;28;20037;-88
2022/05/25 02:58:56;;;;;;;17.85;15.82;;;10.20;99.90;;;;;;5029603;28;20508;-88
2022/05/25 03:01:22;;;;;;;18.90;15.52;;;10.20;99.90;;;;;;5029847;28;20037;-88
2022/05/25 03:03:47;;;;;;;17.75;15.85;;;10.20;99.90;;;;;;5043698;28;20105;-88
2022/05/25 03:06:13;;;;;;;16.13;14.43;;;10.20;99.90;;;;;;5030812;28;20440;-87
2022/05/25 03:08:41;;;;;;;16.75;14.93;;;10.20;99.90;;;;;;5013354;28;20041;-88
2022/05/25 03:11:07;;;;;;;19.80;16.35;;;10.20;99.90;;;;;;5032138;28;20445;-88
2022/05/25 03:13:32;;;;;;;17.60;15.68;;;10.20;99.90;;;;;;5048925;28;20052;-88
2022/05/25 03:16:03;;;;;;;18.30;16.20;;;10.20;99.90;;;;;;5016418;28;20481;-88
2022/05/25 03:18:29;;;;;;;17.98;16.08;;;10.20;99.90;;;;;;5041157;28;20207;-88
2022/05/25 03:20:55;;;;;;;18.15;16.25;;;10.20;99.90;;;;;;5050022;28;20543;-88
2022/05/25 03:23:20;;;;;;;18.02;16.23;;;10.10;99.90;;;;;;5069577;28;20400;-88
2022/05/25 03:25:47;;;;;;;17.75;15.85;;;10.20;99.90;;;;;;5038966;28;20041;-89
2022/05/25 03:28:12;;;;;;;18.38;16.35;;;10.20;99.90;;;;;;5032213;28;20045;-88
2022/05/25 03:30:40;;;;;;;20.10;18.05;;;10.20;99.90;;;;;;5064946;28;20130;-89
2022/05/25 03:33:06;;;;;;;18.60;16.63;;;10.20;99.90;;;;;;5052111;28;20045;-87
2022/05/25 03:35:31;;;;;;;19.38;17.30;;;10.10;99.90;;;;;;5040012;28;20365;-87
2022/05/25 03:37:58;;;;;;;19.23;17.25;;;10.10;99.90;;;;;;5031307;28;20520;-87
2022/05/25 03:40:24;;;;;;;19.52;17.52;;;10.10;99.90;;;;;;5031556;28;20078;-88
2022/05/25 03:42:50;;;;;;;18.80;16.88;;;10.10;99.90;;;;;;5031062;28;20041;-88
2022/05/25 03:45:16;;;;;;;19.50;17.50;;;10.20;99.90;;;;;;5046825;28;20038;-89
2022/05/25 03:47:42;;;;;;;19.08;17.08;;;10.10;99.90;;;;;;5031679;28;20045;-88
2022/05/25 03:50:09;;;;;;;19.50;17.40;;;10.20;99.90;;;;;;5033881;28;20055;-88
2022/05/25 03:52:36;;;;;;;19.80;17.75;;;10.30;99.90;;;;;;5036994;28;20673;-88
2022/05/25 03:55:02;;;;;;;20.55;18.30;;;10.20;99.90;;;;;;5052169;28;20135;-89
2022/05/25 03:57:27;;;;;;;19.58;17.48;;;10.30;99.90;;;;;;5049829;28;20426;-88
2022/05/25 03:59:53;;;;;;;20.80;18.10;;;10.30;99.90;;;;;;5069567;28;20543;-89
2022/05/25 04:02:19;;;;;;;20.25;18.15;;;10.30;99.90;;;;;;5051928;28;20072;-88
2022/05/25 04:04:44;;;;;;;20.27;18.10;;;10.30;99.90;;;;;;5068346;28;20048;-89
2022/05/25 04:07:10;;;;;;;20.08;17.98;;;10.30;99.90;;;;;;5066551;28;20101;-88
2022/05/25 04:09:36;;;;;;;19.83;17.73;;;10.40;99.90;;;;;;5050612;28;20052;-88
2022/05/25 04:12:02;;;;;;;19.48;17.45;;;10.40;99.90;;;;;;5015453;28;20126;-87
2022/05/25 04:14:28;;;;;;;19.80;17.35;;;10.40;99.90;;;;;;5031244;28;20516;-88
2022/05/25 04:16:53;;;;;;;20.75;18.65;;;10.40;99.90;;;;;;5030367;28;20127;-88
2022/05/25 04:19:19;;;;;;;20.15;17.77;;;10.50;99.90;;;;;;5017389;28;20036;-88
2022/05/25 04:21:45;;;;;;;19.73;17.38;;;10.40;99.90;;;;;;5019241;28;20090;-88
2022/05/25 04:24:12;;;;;;;19.60;17.42;;;10.50;99.90;;;;;;5044856;28;20045;-88
2022/05/25 04:26:39;;;;;;;19.50;17.48;;;10.50;99.90;;;;;;5011130;28;20052;-88
2022/05/25 04:29:05;;;;;;;20.13;18.02;;;10.60;99.90;;;;;;5011894;28;20137;-88
2022/05/25 04:31:30;;;;;;;20.05;17.95;;;10.60;99.90;;;;;;5017903;28;20060;-89
2022/05/25 04:33:56;;;;;;;19.67;17.52;;;10.60;99.90;;;;;;5048910;28;20406;-89
2022/05/25 04:36:22;;;;;;;19.58;17.48;;;10.70;99.90;;;;;;5037721;28;20099;-89
2022/05/25 04:38:48;;;;;;;19.80;17.77;;;10.70;99.90;;;;;;5058411;28;20070;-88
2022/05/25 04:41:13;;;;;;;20.52;18.33;;;10.80;99.90;;;;;;5033045;28;20056;-88
2022/05/25 04:43:40;;;;;;;20.00;17.70;;;10.80;99.90;;;;;;4997999;28;20454;-88
2022/05/25 04:46:08;;;;;;;19.88;17.88;;;10.90;99.90;;;;;;5030956;28;20037;-88
2022/05/25 04:48:34;;;;;;;19.95;17.85;;;11.00;99.90;;;;;;5016517;28;20076;-87
2022/05/25 04:51:00;;;;;;;19.95;17.85;;;10.90;99.90;;;;;;5040940;28;20087;-94
2022/05/25 04:53:26;;;;;;;19.58;17.55;;;11.00;99.90;;;;;;5046777;28;20036;-95
2022/05/25 04:58:45;;;;;;;20.08;17.58;;;11.10;99.90;;;;;;5034520;28;20041;-93
2022/05/25 05:01:13;;;;;;;19.17;17.15;;;11.20;99.90;;;;;;5045630;28;20041;-94
2022/05/25 05:03:39;;;;;;;20.38;18.17;;;11.20;99.90;;;;;;5058147;28;20039;-94
2022/05/25 05:06:06;;;;;;;20.45;17.88;;;11.30;99.90;;;;;;5036973;28;20121;-95
2022/05/25 05:08:33;;;;;;;19.73;17.17;;;11.40;99.90;;;;;;5056628;28;20048;-94
2022/05/25 05:11:06;;;;;;;19.95;17.65;;;11.40;99.90;;;;;;5045557;28;20041;-92
2022/05/25 05:13:31;;;;;;;19.13;16.85;;;11.50;99.90;;;;;;5044626;28;20058;-90
2022/05/25 05:16:05;;;;;;;19.40;17.27;;;11.60;99.90;;;;;;5051531;28;20092;-93
2022/05/25 05:18:31;;;;;;;19.30;16.92;;;11.60;99.90;;;;;;5047656;28;20029;-93
2022/05/25 05:20:57;;;;;;;18.67;16.63;;;11.80;99.90;;;;;;5019073;28;20136;-93
2022/05/25 05:23:23;;;;;;;19.10;17.10;;;11.80;99.90;;;;;;5035463;28;20389;-91
2022/05/25 05:25:49;;;;;;;19.10;16.60;;;11.90;99.90;;;;;;5034500;28;20128;-90
2022/05/25 05:28:18;;;;;;;19.00;16.85;;;12.00;99.90;;;;;;5055240;28;20370;-89
2022/05/25 05:30:50;;;;;;;18.50;16.60;;;12.10;99.90;;;;;;5047327;28;20041;-90
2022/05/25 05:33:16;;;;;;;17.92;16.02;;;12.10;99.90;;;;;;5060759;28;20045;-89
2022/05/25 05:35:45;;;;;;;18.70;16.10;;;12.20;99.90;;;;;;5020399;28;20170;-88
2022/05/25 05:38:13;;;;;;;17.45;15.65;;;12.30;99.90;;;;;;5022888;28;20049;-91
2022/05/25 05:40:40;;;;;;;17.70;15.07;;;12.40;99.90;;;;;;5064713;28;20383;-91
2022/05/25 05:43:07;;;;;;;19.23;15.48;;;12.50;99.90;;;;;;5035819;28;20045;-94
2022/05/25 05:45:38;;;;;;;17.63;14.70;;;12.60;99.90;;;;;;5003589;28;20283;-94
2022/05/25 05:48:12;;;;;;;19.55;15.38;;;12.70;99.90;;;;;;5036984;28;20040;-93
2022/05/25 05:50:41;;;;;;;18.20;15.27;;;12.70;99.90;;;;;;5027110;28;20086;-92
2022/05/25 05:53:08;;;;;;;16.33;14.35;;;12.80;99.90;;;;;;5038163;28;20043;-92
2022/05/25 05:55:36;;;;;;;18.42;14.20;;;12.90;99.90;;;;;;5020106;28;20076;-92
2022/05/25 05:58:03;;;;;;;16.83;14.32;;;13.00;99.90;;;;;;5049252;28;20037;-91
2022/05/25 06:00:29;;;;;;;18.85;14.93;;;13.10;99.90;;;;;;5063236;28;20048;-93
2022/05/25 06:02:54;;;;;;;17.88;13.88;;;13.20;99.90;;;;;;5037380;28;20036;-93
2022/05/25 06:05:20;;;;;;;18.73;15.05;;;13.20;99.90;;;;;;5061887;28;20048;-92
2022/05/25 06:07:46;;;;;;;17.85;14.98;;;13.40;99.90;;;;;;5057674;28;20068;-92
2022/05/25 06:10:12;;;;;;;17.30;14.32;;;13.40;99.90;;;;;;5019398;28;20057;-93
2022/05/25 06:12:37;;;;;;;18.70;15.38;;;13.40;99.90;;;;;;5038075;28;20048;-93
2022/05/25 06:20:34;;;;;;;17.60;14.48;;;13.70;99.90;;;;;;5055616;28;20052;-92
2022/05/25 06:22:59;;;;;;;17.55;14.57;;;13.70;99.90;;;;;;5071070;28;20041;-92
2022/05/25 06:25:25;;;;;;;18.60;15.05;;;13.70;99.90;;;;;;5037016;28;20041;-92
2022/05/25 06:27:51;;;;;;;18.60;15.02;;;13.80;99.90;;;;;;5049117;28;20060;-91
2022/05/25 06:30:16;;;;;;;18.00;15.73;;;13.80;99.90;;;;;;5036038;28;20083;-88
2022/05/25 06:32:42;;;;;;;18.20;15.55;;;13.90;99.90;;;;;;5036790;28;20037;-88
2022/05/25 06:35:10;;;;;;;18.02;15.07;;;13.80;99.90;;;;;;5054177;28;20480;-94
2022/05/25 06:37:35;;;;;;;19.15;15.38;;;14.10;99.90;;;;;;5003190;28;20041;-93
2022/05/25 06:40:03;;;;;;;17.40;15.48;;;14.00;99.90;;;;;;5035899;28;20047;-93
2022/05/25 06:42:28;;;;;;;18.65;14.77;;;14.10;99.90;;;;;;5033767;28;20049;-92
2022/05/25 06:44:54;;;;;;;19.08;14.95;;;14.10;99.90;;;;;;5055615;28;20048;-94
2022/05/25 06:47:20;;;;;;;16.95;15.05;;;14.20;99.90;;;;;;5054771;28;20043;-92
2022/05/25 06:49:46;;;;;;;19.20;14.55;;;14.20;99.90;;;;;;5016300;28;20049;-94
2022/05/25 06:52:13;;;;;;;18.20;14.73;;;14.30;99.90;;;;;;5019803;28;20037;-93
2022/05/25 06:54:45;;;;;;;19.13;15.13;;;14.30;99.90;;;;;;5018915;28;20056;-92
2022/05/25 06:57:11;;;;;;;19.02;15.27;;;14.40;99.90;;;;;;5034862;28;20045;-92
2022/05/25 06:59:36;;;;;;;17.48;14.40;;;14.50;99.90;;;;;;5018666;28;20481;-90
2022/05/25 07:02:03;;;;;;;16.92;13.18;;;14.60;99.90;;;;;;5054300;28;20039;-92
2022/05/25 07:04:28;;;;;;;20.05;13.60;;;14.60;99.90;;;;;;5017658;28;20073;-90
2022/05/25 07:06:54;;;;;;;19.70;14.80;;;14.70;99.90;;;;;;5036945;28;20067;-94
2022/05/25 07:09:20;;;;;;;16.45;13.02;;;14.80;99.90;;;;;;5040699;28;20477;-92
2022/05/25 07:11:52;;;;;;;16.27;12.40;;;14.80;99.90;;;;;;5055639;28;20119;-92
2022/05/25 07:14:18;;;;;;;16.27;12.55;;;14.80;99.90;;;;;;5019095;28;20041;-90
2022/05/25 07:16:44;;;;;;;15.18;12.15;;;14.80;99.90;;;;;;5051474;28;20032;-92
2022/05/25 07:19:10;;;;;;;13.10;10.50;;;14.90;99.90;;;;;;5052919;28;20041;-92
2022/05/25 07:21:35;;;;;;;14.23;10.30;;;14.90;99.90;;;;;;5019093;28;20049;-95
2022/05/25 07:24:02;;;;;;;12.43;10.05;;;15.00;99.90;;;;;;5021935;28;20040;-93
2022/05/25 07:26:37;;;;;;;12.95;10.23;;;15.00;99.90;;;;;;5040087;28;20400;-94
2022/05/25 07:29:03;;;;;;;12.45;10.00;;;15.00;99.90;;;;;;5026475;28;20045;-94
2022/05/25 07:31:37;;;;;;;13.50;9.60;;;15.00;99.90;;;;;;5022296;28;20186;-95
2022/05/25 07:34:08;;;;;;;11.20;8.05;;;15.10;99.90;;;;;;5038908;28;20045;-93
2022/05/25 07:36:36;;;;;;;12.07;8.35;;;15.20;99.90;;;;;;5022492;28;20053;-93
2022/05/25 07:39:05;;;;;;;11.48;7.93;;;15.20;99.90;;;;;;5039602;28;20032;-95
2022/05/25 07:41:35;;;;;;;10.02;7.70;;;15.30;99.90;;;;;;5024048;28;20385;-91
2022/05/25 07:44:01;;;;;;;10.65;7.72;;;15.30;99.90;;;;;;5047465;28;20144;-93
2022/05/25 07:46:29;;;;;;;11.18;8.05;;;15.30;99.90;;;;;;5030734;28;20044;-92
2022/05/25 07:48:55;;;;;;;9.07;6.70;;;15.40;99.90;;;;;;5040214;28;20053;-93
2022/05/25 07:51:22;;;;;;;10.38;5.65;;;15.40;99.90;;;;;;5025358;28;20037;-92
2022/05/25 07:53:55;;;;;;;9.88;6.57;;;15.50;99.90;;;;;;5034808;28;20044;-94
2022/05/25 07:56:33;;;;;;;8.82;6.00;;;15.50;99.90;;;;;;5026434;28;20044;-92
2022/05/25 07:59:00;;;;;;;10.43;5.82;;;15.60;99.90;;;;;;5046314;28;20045;-94
2022/05/25 08:07:01;;;;;;;9.77;5.40;;;15.50;99.90;;;;;;5065693;28;20036;-94
2022/05/25 08:09:27;;;;;;;9.27;5.50;;;15.60;99.90;;;;;;5040302;28;20053;-95
2022/05/25 08:11:53;;;;;;;9.35;5.50;;;15.50;99.90;;;;;;5050457;28;20047;-94
2022/05/25 08:14:22;;;;;;;8.45;6.13;;;15.60;99.90;;;;;;5034906;28;20053;-94
2022/05/25 08:16:53;;;;;;;10.57;6.57;;;15.60;99.90;;;;;;5060058;28;20408;-94
2022/05/25 08:19:18;;;;;;;11.40;6.97;;;15.70;99.90;;;;;;5018421;28;20084;-93
2022/05/25 08:21:53;;;;;;;9.93;6.47;;;15.80;99.90;;;;;;5033677;28;20033;-95
2022/05/25 08:24:32;;;;;;;10.05;7.55;;;15.90;99.90;;;;;;5066860;28;20058;-96
2022/05/25 08:27:13;;;;;;;12.15;7.80;;;15.90;99.90;;;;;;5038783;28;20052;-95
2022/05/25 08:29:39;;;;;;;10.70;6.85;;;15.90;99.90;;;;;;5036200;28;20068;-94
2022/05/25 08:32:05;;;;;;;9.15;6.75;;;16.20;99.90;;;;;;5058016;28;20071;-93
2022/05/25 08:34:31;;;;;;;9.13;7.20;;;16.20;99.90;;;;;;5049824;28;20104;-90
2022/05/25 08:36:57;;;;;;;11.38;7.00;;;16.30;99.90;;;;;;5044795;28;20056;-91
2022/05/25 08:39:24;;;;;;;9.30;6.50;;;16.40;99.90;;;;;;5051716;28;20448;-95
2022/05/25 08:41:59;;;;;;;10.05;6.38;;;16.50;99.90;;;;;;5063427;28;20041;-95
2022/05/25 08:44:25;;;;;;;8.70;5.30;;;16.60;99.90;;;;;;5065429;28;20029;-94
2022/05/25 08:46:58;;;;;;;10.13;6.15;;;16.70;99.90;;;;;;5028874;28;20041;-94
2022/05/25 08:49:25;;;;;;;9.38;5.20;;;16.70;99.90;;;;;;5046524;28;20048;-95
2022/05/25 08:51:55;;;;;;;8.57;4.78;;;16.80;99.90;;;;;;5076921;28;20113;-94
2022/05/25 08:54:24;;;;;;;7.95;4.60;;;16.70;99.90;;;;;;5080691;28;20044;-95
2022/05/25 08:57:00;;;;;;;9.25;4.70;;;16.80;99.90;;;;;;5065910;28;20044;-95
2022/05/25 08:59:35;;;;;;;8.27;5.60;;;16.90;99.90;;;;;;5043300;28;20076;-95
2022/05/25 09:02:12;;;;;;;9.18;5.57;;;16.90;99.90;;;;;;5045951;28;20064;-93
2022/05/25 09:04:51;;;;;;;7.97;4.20;;;16.90;99.90;;;;;;5049543;28;20056;-95
2022/05/25 09:07:29;;;;;;;7.78;4.32;;;17.10;99.90;;;;;;5058546;28;20041;-94
2022/05/25 09:09:55;;;;;;;6.75;3.85;;;17.10;99.90;;;;;;5058342;28;20061;-91
2022/05/25 09:12:30;;;;;;;7.05;3.97;;;17.10;99.90;;;;;;5061164;28;20049;-94
2022/05/25 09:15:03;;;;;;;8.18;4.18;;;17.00;99.90;;;;;;5043387;28;20146;-94
2022/05/25 09:17:45;;;;;;;7.43;3.70;;;17.20;99.90;;;;;;5041914;28;20485;-93
2022/05/25 09:20:17;;;;;;;7.05;3.63;;;17.20;99.90;;;;;;5061742;28;20163;-93
2022/05/25 09:22:43;;;;;;;;;;;17.30;99.90;;;;;;5057459;28;20021;-92
2022/05/25 09:25:12;;;;;;;7.57;4.40;;;17.20;99.90;;;;;;5060079;28;19967;-94
2022/05/25 09:28:00;;;;;;;8.00;4.93;;;17.20;99.90;;;;;;5012944;28;20089;-94
2022/05/25 09:30:28;;;;;;;8.00;4.65;;;17.20;99.90;;;;;;5044714;28;20044;-94
2022/05/25 09:33:02;;;;;;;7.07;4.50;;;17.20;99.90;;;;;;5041722;28;20068;-95
2022/05/25 09:35:36;;;;;;;7.32;4.70;;;17.30;99.90;;;;;;5027692;28;20048;-94
2022/05/25 09:38:05;;;;;;;9.32;5.80;;;17.40;99.90;;;;;;5050184;28;20045;-94
2022/05/25 09:40:40;;;;;;;8.23;4.78;;;17.40;99.90;;;;;;5049309;28;20041;-93
2022/05/25 09:43:12;;;;;;;7.47;4.60;;;17.50;99.90;;;;;;5048348;28;20481;-93
2022/05/25 09:45:41;;;;;;;6.97;4.68;;;17.50;99.90;;;;;;5051701;28;20045;-94
2022/05/25 09:48:22;;;;;;;7.65;4.28;;;17.70;99.90;;;;;;5040819;28;20049;-94
2022/05/25 09:51:03;;;;;;;10.98;6.25;;;17.80;99.90;;;;;;5032083;28;20076;-95
2022/05/25 09:53:39;;;;;;;8.27;5.45;;;17.80;99.90;;;;;;5070795;28;20041;-95
2022/05/25 09:56:15;;;;;;;7.95;5.40;;;17.70;99.90;;;;;;5050137;28;20040;-92
2022/05/25 09:58:47;;;;;;;8.30;4.93;;;17.60;99.90;;;;;;5050733;28;20080;-94
2022/05/25 10:01:33;;;;;;;8.57;5.25;;;17.60;99.90;;;;;;5056416;28;20524;-94
2022/05/25 10:04:00;;;;;;;7.13;5.20;;;17.50;99.90;;;;;;5041528;28;20318;-94
2022/05/25 10:06:35;;;;;;;7.50;5.50;;;17.50;99.90;;;;;;5042538;28;20045;-95
2022/05/25 10:09:21;;;;;;;7.80;5.20;;;17.60;99.90;;;;;;5072057;28;20052;-95
2022/05/25 10:11:50;;;;;;;9.02;4.75;;;17.70;99.90;;;;;;5059049;28;20048;-92
2022/05/25 10:14:16;;;;;;;8.77;5.00;;;17.70;99.90;;;;;;5044763;28;20110;-94
2022/05/25 10:16:42;;;;;;;8.63;5.55;;;17.80;99.90;;;;;;5041664;28;20048;-92
2022/05/25 10:19:13;;;;;;;7.55;5.13;;;17.90;99.90;;;;;;5027285;28;20512;-96
2022/05/25 10:21:45;;;;;;;8.82;5.50;;;17.90;99.90;;;;;;5051183;28;20045;-96
2022/05/25 10:24:21;;;;;;;9.25;5.28;;;18.00;99.90;;;;;;5046422;28;20071;-96
2022/05/25 10:26:56;;;;;;;7.82;5.40;;;17.90;99.90;;;;;;5052163;28;20041;-95
2022/05/25 10:38:27;;;;;;;8.05;4.90;;;17.60;99.90;;;;;;5053318;28;20390;-96
2022/05/25 10:40:54;;;;;;;8.57;5.05;;;17.60;99.90;;;;;;5050446;28;20073;-94
2022/05/25 10:43:38;;;;;;;9.40;5.20;;;17.70;99.90;;;;;;5051209;28;20056;-94
2022/05/25 10:46:04;;;;;;;7.57;4.35;;;17.80;99.90;;;;;;5043389;28;20037;-95
2022/05/25 10:48:57;;;;;;;6.35;3.40;;;17.90;99.90;;;;;;5067738;28;20047;-95
2022/05/25 10:51:38;;;;;;;8.02;3.30;;;18.00;99.90;;;;;;5027674;28;20045;-94
2022/05/25 10:54:53;;;;;;;6.47;3.38;;;18.10;99.90;;;;;;5043349;28;20087;-95
2022/05/25 10:57:44;;;;;;;5.45;2.20;;;18.30;99.90;;;;;;5045860;28;20044;-94
2022/05/25 11:00:19;;;;;;;7.55;2.58;;;18.40;99.90;;;;;;5041838;28;20094;-94
2022/05/25 11:02:48;;;;;;;5.95;2.22;;;18.40;99.90;;;;;;5049686;28;20051;-94
2022/05/25 11:05:31;;;;;;;4.88;2.10;;;18.50;99.90;;;;;;5041523;28;20055;-92
2022/05/25 11:08:07;;;;;;;4.88;2.22;;;18.50;99.90;;;;;;5075737;28;20063;-94
2022/05/25 11:11:08;;;;;;;7.05;2.88;;;18.60;99.90;;;;;;5029314;28;20397;-94
2022/05/25 11:13:51;;;;;;;6.20;2.83;;;18.50;99.90;;;;;;5013178;28;20073;-96
2022/05/25 11:16:32;;;;;;;7.38;3.60;;;18.60;99.90;;;;;;5072781;28;21431;-96
2022/05/25 11:19:39;;;;;;;8.68;3.85;;;18.60;99.90;;;;;;5043187;28;20045;-93
2022/05/25 11:22:23;;;;;;;7.63;3.80;;;18.70;99.90;;;;;;5046407;28;20047;-93
2022/05/25 11:25:03;;;;;;;7.75;4.45;;;18.70;99.90;;;;;;5045473;28;20051;-95
2022/05/25 11:27:47;;;;;;;7.63;4.57;;;18.80;99.90;;;;;;5051904;28;20028;-94
2022/05/25 11:30:45;;;;;;;8.40;4.40;;;18.80;99.90;;;;;;5034715;28;20109;-93
2022/05/25 11:33:52;;;;;;;7.95;4.18;;;18.80;99.90;;;;;;5046713;28;20041;-94
2022/05/25 11:37:03;;;;;;;5.63;3.42;;;18.60;99.90;;;;;;5059767;28;20041;-89
2022/05/25 11:39:50;;;;;;;7.50;4.05;;;18.40;99.90;;;;;;5045152;28;20179;-93
2022/05/25 11:42:58;;;;;;;8.15;4.32;;;18.30;99.90;;;;;;5039314;28;20048;-95
2022/05/25 11:45:39;;;;;;;7.00;4.40;;;18.20;99.90;;;;;;5064486;28;20070;-94
2022/05/25 11:48:15;;;;;;;;;;;18.20;99.90;;;;;;5052670;28;20048;-92
2022/05/25 11:51:13;;;;;;;7.40;4.65;;;18.00;99.90;;;;;;5021554;28;20335;-94
2022/05/25 11:54:01;;;;;;;9.35;4.75;;;17.90;99.90;;;;;;5049287;28;20041;-92
2022/05/25 11:57:08;;;;;;;7.60;4.82;;;17.80;99.90;;;;;;5037543;28;20025;-94
2022/05/25 12:00:05;;;;;;;8.07;5.55;;;17.70;99.90;;;;;;5036463;28;20052;-92
2022/05/25 12:02:55;;;;;;;11.95;8.13;;;17.50;99.90;;;;;;5028037;28;20044;-89
2022/05/25 12:05:38;;;;;;;12.15;8.90;;;17.20;99.90;;;;;;5054930;28;20041;-92
2022/05/25 12:08:31;;;;;;;12.48;8.98;;;16.70;99.90;;;;;;5037777;28;20056;-93
2022/05/25 12:11:15;;;;;;;13.98;9.93;;;16.40;99.90;;;;;;5028255;28;20076;-91
2022/05/25 12:13:56;;;;;;;12.98;10.05;;;16.20;99.90;;;;;;5032078;28;20044;-94
2022/05/25 12:16:27;;;;;;;13.13;10.93;;;16.10;99.90;;;;;;5032781;28;20041;-91
2022/05/25 12:19:05;;;;;;;12.90;10.18;;;16.10;99.90;;;;;;5040247;28;20103;-91
2022/05/25 12:21:35;;;;;;;11.15;9.65;;;16.30;99.90;;;;;;5032536;28;20552;-93
2022/05/25 12:24:21;;;;;;;11.32;9.10;;;16.50;99.90;;;;;;5042105;28;20068;-93
2022/05/25 12:26:46;;;;;;;10.63;9.20;;;16.60;99.90;;;;;;5017301;28;20044;-93
2022/05/25 12:29:21;;;;;;;9.95;8.60;;;16.90;99.90;;;;;;5026308;28;20037;-92
2022/05/25 12:31:56;;;;;;;11.23;8.05;;;17.10;99.90;;;;;;5036041;28;20052;-90
2022/05/25 12:34:44;;;;;;;9.00;5.50;;;17.20;99.90;;;;;;5035159;28;20056;-93
2022/05/25 12:37:14;;;;;;;7.60;5.13;;;17.40;99.90;;;;;;5056333;28;20064;-96
2022/05/25 12:39:46;;;;;;;10.27;5.10;;;17.60;99.90;;;;;;5035979;28;20385;-94
2022/05/25 12:42:38;;;;;;;8.85;3.92;;;17.70;99.90;;;;;;5038285;28;20056;-91
2022/05/25 12:50:47;;;;;;;7.50;3.50;;;17.40;99.90;;;;;;5032580;28;20047;-90
2022/05/25 12:53:28;;;;;;;6.13;2.90;;;17.20;99.90;;;;;;5048952;28;20041;-92
2022/05/25 12:55:58;;;;;;;8.48;2.97;;;17.10;99.90;;;;;;5039037;28;20044;-90
2022/05/25 12:58:37;;;;;;;7.80;2.85;;;17.10;99.90;;;;;;5042971;28;20095;-92
2022/05/25 13:01:05;;;;;;;7.85;2.55;;;17.10;99.90;;;;;;5040055;28;20408;-90
2022/05/25 13:03:47;;;;;;;7.88;2.70;;;17.10;99.90;;;;;;5060998;28;20117;-93
2022/05/25 13:06:14;;;;;;;;;;;17.10;99.90;;;;;;5035344;28;20047;-92
2022/05/25 13:08:45;;;;;;;7.43;2.17;;;17.00;99.90;;;;;;5042193;28;19963;-89
2022/05/25 13:11:44;;;;;;;5.25;2.20;;;17.30;99.90;;;;;;5054958;28;20056;-91
2022/05/25 13:14:16;;;;;;;6.32;2.10;;;17.40;99.90;;;;;;5015684;28;20045;-91
2022/05/25 13:17:03;;;;;;;7.90;2.00;;;17.60;99.90;;;;;;5055026;28;20048;-95
2022/05/25 13:19:33;;;;;;;5.78;1.65;;;17.70;99.90;;;;;;5056767;28;20049;-96
2022/05/25 13:22:17;;;;;;;6.38;1.52;;;17.80;99.90;;;;;;5045972;28;20044;-95
2022/05/25 13:25:14;;;;;;;7.68;1.80;;;17.90;99.90;;;;;;5044966;28;20036;-95
2022/05/25 13:28:19;;;;;;;6.47;1.60;;;18.00;99.90;;;;;;5061349;28;20103;-93
2022/05/25 13:33:46;;;;;;;6.57;1.88;;;18.20;99.90;;;;;;5058726;22;20062;-94
2022/05/25 13:36:19;;;;;;;5.60;1.20;;;18.40;99.90;;;;;;5011460;28;20414;-95
2022/05/25 13:38:49;;;;;;;4.95;1.30;;;18.50;99.90;;;;;;5025614;28;20060;-94